sensor_id;sensor_type;location;lat;lon;timestamp;temperature;humidity
7814;DHT22;3952;48.364;16.022;2023-08-06T00:02:00;16.20;99.90
7814;DHT22;3952;48.364;16.022;2023-08-06T00:04:27;15.20;99.90
7814;DHT22;3952;48.364;16.022;2023-08-06T00:06:54;16.20;99.90
7814;DHT22;3952;48.364;16.022;2023-08-06T00:09:21;16.20;99.90
7814;DHT22;3952;48.364;16.022;2023-08-06T00:11:48;16.20;99.90
7814;DHT22;3952;48.364;16.022;2023-08-06T00:14:16;16.20;99.90
7814;DHT22;3952;48.364;16.022;2023-08-06T00:16:43;16.20;99.90
7814;DHT22;3952;48.364;16.022;2023-08-06T00:19:12;16.20;99.90
7814;DHT22;3952;48.364;16.022;2023-08-06T00:21:39;16.20;99.90
7814;DHT22;3952;48.364;16.022;2023-08-06T00:24:07;16.20;99.90
7814;DHT22;3952;48.364;16.022;2023-08-06T00:26:34;16.20;99.90
7814;DHT22;3952;48.364;16.022;2023-08-06T00:29:01;16.20;99.90
7814;DHT22;3952;48.364;16.022;2023-08-06T00:31:28;16.20;99.90
7814;DHT22;3952;48.364;16.022;2023-08-06T00:33:55;16.10;99.90
7814;DHT22;3952;48.364;16.022;2023-08-06T00:36:24;16.10;99.90
7814;DHT22;3952;48.364;16.022;2023-08-06T00:38:51;16.20;99.90
7814;DHT22;3952;48.364;16.022;2023-08-06T00:41:18;16.20;99.90
7814;DHT22;3952;48.364;16.022;2023-08-06T00:43:45;16.20;99.90
7814;DHT22;3952;48.364;16.022;2023-08-06T00:46:13;16.20;99.90
7814;DHT22;3952;48.364;16.022;2023-08-06T00:48:41;16.20;99.90
7814;DHT22;3952;48.364;16.022;2023-08-06T00:51:09;16.20;99.90
7814;DHT22;3952;48.364;16.022;2023-08-06T00:53:39;16.20;99.90
7814;DHT22;3952;48.364;16.022;2023-08-06T00:56:06;16.10;99.90
7814;DHT22;3952;48.364;16.022;2023-08-06T00:58:35;16.10;99.90
7814;DHT22;3952;48.364;16.022;2023-08-06T01:01:03;16.10;99.90
7814;DHT22;3952;48.364;16.022;2023-08-06T01:03:30;16.10;99.90
7814;DHT22;3952;48.364;16.022;2023-08-06T01:05:57;16.10;99.90
7814;DHT22;3952;48.364;16.022;2023-08-06T01:08:31;16.10;99.90
7814;DHT22;3952;48.364;16.022;2023-08-06T01:11:11;16.10;99.90
7814;DHT22;3952;48.364;16.022;2023-08-06T01:13:43;16.00;99.90
7814;DHT22;3952;48.364;16.022;2023-08-06T01:16:15;16.00;99.90
7814;DHT22;3952;48.364;16.022;2023-08-06T01:18:42;16.00;99.90
7814;DHT22;3952;48.364;16.022;2023-08-06T01:21:13;16.00;99.90
7814;DHT22;3952;48.364;16.022;2023-08-06T01:23:41;16.00;99.90
7814;DHT22;3952;48.364;16.022;2023-08-06T01:26:17;15.90;99.90
7814;DHT22;3952;48.364;16.022;2023-08-06T01:28:51;15.90;99.90
7814;DHT22;3952;48.364;16.022;2023-08-06T01:31:22;15.80;99.90
7814;DHT22;3952;48.364;16.022;2023-08-06T01:33:51;15.90;99.90
7814;DHT22;3952;48.364;16.022;2023-08-06T01:36:22;15.80;99.90
7814;DHT22;3952;48.364;16.022;2023-08-06T01:38:51;15.80;99.90
7814;DHT22;3952;48.364;16.022;2023-08-06T01:41:19;15.80;99.90
7814;DHT22;3952;48.364;16.022;2023-08-06T01:43:46;15.80;99.90
7814;DHT22;3952;48.364;16.022;2023-08-06T01:46:13;15.80;99.90
7814;DHT22;3952;48.364;16.022;2023-08-06T01:48:41;15.80;99.90
7814;DHT22;3952;48.364;16.022;2023-08-06T01:51:08;15.80;99.90
7814;DHT22;3952;48.364;16.022;2023-08-06T01:53:36;15.80;99.90
7814;DHT22;3952;48.364;16.022;2023-08-06T01:56:04;15.70;99.90
7814;DHT22;3952;48.364;16.022;2023-08-06T01:58:31;15.70;99.90
7814;DHT22;3952;48.364;16.022;2023-08-06T02:00:58;15.80;99.90
7814;DHT22;3952;48.364;16.022;2023-08-06T02:03:25;15.70;99.90
7814;DHT22;3952;48.364;16.022;2023-08-06T02:05:52;15.70;99.90
7814;DHT22;3952;48.364;16.022;2023-08-06T02:08:20;15.70;99.90
7814;DHT22;3952;48.364;16.022;2023-08-06T02:10:48;15.70;99.90
7814;DHT22;3952;48.364;16.022;2023-08-06T02:13:15;15.70;99.90
7814;DHT22;3952;48.364;16.022;2023-08-06T02:15:43;15.70;99.90
7814;DHT22;3952;48.364;16.022;2023-08-06T02:18:11;15.70;99.90
7814;DHT22;3952;48.364;16.022;2023-08-06T02:20:38;15.60;99.90
7814;DHT22;3952;48.364;16.022;2023-08-06T02:23:05;15.60;99.90
7814;DHT22;3952;48.364;16.022;2023-08-06T02:25:32;15.70;99.90
7814;DHT22;3952;48.364;16.022;2023-08-06T02:28:01;15.60;99.90
7814;DHT22;3952;48.364;16.022;2023-08-06T02:30:28;15.70;99.90
7814;DHT22;3952;48.364;16.022;2023-08-06T02:32:56;15.60;99.90
7814;DHT22;3952;48.364;16.022;2023-08-06T02:35:23;15.60;99.90
7814;DHT22;3952;48.364;16.022;2023-08-06T02:37:50;15.70;99.90
7814;DHT22;3952;48.364;16.022;2023-08-06T02:40:17;15.60;99.90
7814;DHT22;3952;48.364;16.022;2023-08-06T02:42:44;15.60;99.90
7814;DHT22;3952;48.364;16.022;2023-08-06T02:45:13;15.70;99.90
7814;DHT22;3952;48.364;16.022;2023-08-06T02:47:40;15.60;99.90
7814;DHT22;3952;48.364;16.022;2023-08-06T02:50:08;15.60;99.90
7814;DHT22;3952;48.364;16.022;2023-08-06T02:52:35;15.60;99.90
7814;DHT22;3952;48.364;16.022;2023-08-06T02:55:05;15.70;99.90
7814;DHT22;3952;48.364;16.022;2023-08-06T02:57:32;15.60;99.90
7814;DHT22;3952;48.364;16.022;2023-08-06T03:00:00;15.60;99.90
7814;DHT22;3952;48.364;16.022;2023-08-06T03:02:28;15.60;99.90
7814;DHT22;3952;48.364;16.022;2023-08-06T03:04:55;15.60;99.90
7814;DHT22;3952;48.364;16.022;2023-08-06T03:07:23;15.70;99.90
7814;DHT22;3952;48.364;16.022;2023-08-06T03:09:50;15.60;99.90
7814;DHT22;3952;48.364;16.022;2023-08-06T03:12:17;15.60;99.90
7814;DHT22;3952;48.364;16.022;2023-08-06T03:14:44;15.60;99.90
7814;DHT22;3952;48.364;16.022;2023-08-06T03:17:11;15.60;99.90
7814;DHT22;3952;48.364;16.022;2023-08-06T03:19:40;15.60;99.90
7814;DHT22;3952;48.364;16.022;2023-08-06T03:22:07;15.70;99.90
7814;DHT22;3952;48.364;16.022;2023-08-06T03:24:34;15.70;99.90
7814;DHT22;3952;48.364;16.022;2023-08-06T03:27:01;15.70;99.90
7814;DHT22;3952;48.364;16.022;2023-08-06T03:29:28;15.70;99.90
7814;DHT22;3952;48.364;16.022;2023-08-06T03:31:56;15.70;99.90
7814;DHT22;3952;48.364;16.022;2023-08-06T03:34:23;15.60;99.90
7814;DHT22;3952;48.364;16.022;2023-08-06T03:36:51;15.70;99.90
7814;DHT22;3952;48.364;16.022;2023-08-06T03:39:18;15.70;99.90
7814;DHT22;3952;48.364;16.022;2023-08-06T03:41:46;15.70;99.90
7814;DHT22;3952;48.364;16.022;2023-08-06T03:44:13;15.60;99.90
7814;DHT22;3952;48.364;16.022;2023-08-06T03:46:40;15.60;99.90
7814;DHT22;3952;48.364;16.022;2023-08-06T03:49:07;15.60;99.90
7814;DHT22;3952;48.364;16.022;2023-08-06T03:51:34;15.60;99.90
7814;DHT22;3952;48.364;16.022;2023-08-06T03:54:03;15.60;99.90
7814;DHT22;3952;48.364;16.022;2023-08-06T03:56:30;15.60;99.90
7814;DHT22;3952;48.364;16.022;2023-08-06T03:58:57;15.50;99.90
7814;DHT22;3952;48.364;16.022;2023-08-06T04:01:24;15.60;99.90
7814;DHT22;3952;48.364;16.022;2023-08-06T04:03:51;15.60;99.90
7814;DHT22;3952;48.364;16.022;2023-08-06T04:06:19;15.60;99.90
7814;DHT22;3952;48.364;16.022;2023-08-06T04:08:46;15.60;99.90
7814;DHT22;3952;48.364;16.022;2023-08-06T04:11:14;15.60;99.90
7814;DHT22;3952;48.364;16.022;2023-08-06T04:13:43;15.70;99.90
7814;DHT22;3952;48.364;16.022;2023-08-06T04:16:10;15.60;99.90
7814;DHT22;3952;48.364;16.022;2023-08-06T04:18:39;15.60;99.90
7814;DHT22;3952;48.364;16.022;2023-08-06T04:21:06;15.60;99.90
7814;DHT22;3952;48.364;16.022;2023-08-06T04:23:33;15.60;99.90
7814;DHT22;3952;48.364;16.022;2023-08-06T04:26:00;15.60;99.90
7814;DHT22;3952;48.364;16.022;2023-08-06T04:28:29;15.60;99.90
7814;DHT22;3952;48.364;16.022;2023-08-06T04:30:58;15.60;99.90
7814;DHT22;3952;48.364;16.022;2023-08-06T04:33:25;15.60;99.90
7814;DHT22;3952;48.364;16.022;2023-08-06T04:35:55;15.70;99.90
7814;DHT22;3952;48.364;16.022;2023-08-06T04:38:24;15.60;99.90
7814;DHT22;3952;48.364;16.022;2023-08-06T04:40:52;15.60;99.90
7814;DHT22;3952;48.364;16.022;2023-08-06T04:43:19;15.60;99.90
7814;DHT22;3952;48.364;16.022;2023-08-06T04:45:48;15.60;99.90
7814;DHT22;3952;48.364;16.022;2023-08-06T04:48:15;15.60;99.90
7814;DHT22;3952;48.364;16.022;2023-08-06T04:50:46;15.60;99.90
7814;DHT22;3952;48.364;16.022;2023-08-06T04:53:13;15.60;99.90
7814;DHT22;3952;48.364;16.022;2023-08-06T04:55:41;15.60;99.90
7814;DHT22;3952;48.364;16.022;2023-08-06T04:58:09;15.60;99.90
7814;DHT22;3952;48.364;16.022;2023-08-06T05:00:37;15.60;99.90
7814;DHT22;3952;48.364;16.022;2023-08-06T05:03:06;15.60;99.90
7814;DHT22;3952;48.364;16.022;2023-08-06T05:05:33;15.60;99.90
7814;DHT22;3952;48.364;16.022;2023-08-06T05:08:01;15.60;99.90
7814;DHT22;3952;48.364;16.022;2023-08-06T05:10:28;15.60;99.90
7814;DHT22;3952;48.364;16.022;2023-08-06T05:12:55;15.60;99.90
7814;DHT22;3952;48.364;16.022;2023-08-06T05:15:22;15.70;99.90
7814;DHT22;3952;48.364;16.022;2023-08-06T05:17:51;15.60;99.90
7814;DHT22;3952;48.364;16.022;2023-08-06T05:20:20;15.70;99.90
7814;DHT22;3952;48.364;16.022;2023-08-06T05:22:47;15.70;99.90
7814;DHT22;3952;48.364;16.022;2023-08-06T05:25:14;15.70;99.90
7814;DHT22;3952;48.364;16.022;2023-08-06T05:27:42;15.70;99.90
7814;DHT22;3952;48.364;16.022;2023-08-06T05:30:10;15.70;99.90
7814;DHT22;3952;48.364;16.022;2023-08-06T05:32:37;15.80;99.90
7814;DHT22;3952;48.364;16.022;2023-08-06T05:35:05;15.80;99.90
7814;DHT22;3952;48.364;16.022;2023-08-06T05:37:34;15.80;99.90
7814;DHT22;3952;48.364;16.022;2023-08-06T05:40:01;15.80;99.90
7814;DHT22;3952;48.364;16.022;2023-08-06T05:42:29;15.80;99.90
7814;DHT22;3952;48.364;16.022;2023-08-06T05:44:57;15.80;99.90
7814;DHT22;3952;48.364;16.022;2023-08-06T05:47:24;15.90;99.90
7814;DHT22;3952;48.364;16.022;2023-08-06T05:49:51;15.90;99.90
7814;DHT22;3952;48.364;16.022;2023-08-06T05:52:19;15.90;99.90
7814;DHT22;3952;48.364;16.022;2023-08-06T05:54:47;15.90;99.90
7814;DHT22;3952;48.364;16.022;2023-08-06T05:57:14;15.90;99.90
7814;DHT22;3952;48.364;16.022;2023-08-06T05:59:42;15.90;99.90
7814;DHT22;3952;48.364;16.022;2023-08-06T06:02:09;16.00;99.90
7814;DHT22;3952;48.364;16.022;2023-08-06T06:04:37;16.00;99.90
7814;DHT22;3952;48.364;16.022;2023-08-06T06:07:04;16.00;99.90
7814;DHT22;3952;48.364;16.022;2023-08-06T06:09:32;16.10;99.90
7814;DHT22;3952;48.364;16.022;2023-08-06T06:12:00;16.10;99.90
7814;DHT22;3952;48.364;16.022;2023-08-06T06:14:27;16.10;99.90
7814;DHT22;3952;48.364;16.022;2023-08-06T06:16:55;16.10;99.90
7814;DHT22;3952;48.364;16.022;2023-08-06T06:19:22;16.20;99.90
7814;DHT22;3952;48.364;16.022;2023-08-06T06:21:49;16.20;99.90
7814;DHT22;3952;48.364;16.022;2023-08-06T06:24:16;16.20;99.90
7814;DHT22;3952;48.364;16.022;2023-08-06T06:26:43;16.20;99.90
7814;DHT22;3952;48.364;16.022;2023-08-06T06:29:12;16.20;99.90
7814;DHT22;3952;48.364;16.022;2023-08-06T06:31:39;16.20;99.90
7814;DHT22;3952;48.364;16.022;2023-08-06T06:34:06;16.30;99.90
7814;DHT22;3952;48.364;16.022;2023-08-06T06:36:34;16.30;99.90
7814;DHT22;3952;48.364;16.022;2023-08-06T06:39:01;16.30;99.90
7814;DHT22;3952;48.364;16.022;2023-08-06T06:41:28;16.30;99.90
7814;DHT22;3952;48.364;16.022;2023-08-06T06:43:57;16.40;99.90
7814;DHT22;3952;48.364;16.022;2023-08-06T06:46:26;16.30;99.90
7814;DHT22;3952;48.364;16.022;2023-08-06T06:48:53;16.40;99.90
7814;DHT22;3952;48.364;16.022;2023-08-06T06:51:20;16.40;99.90
7814;DHT22;3952;48.364;16.022;2023-08-06T06:53:47;16.50;99.90
7814;DHT22;3952;48.364;16.022;2023-08-06T06:56:14;16.50;99.90
7814;DHT22;3952;48.364;16.022;2023-08-06T06:58:41;16.50;99.90
7814;DHT22;3952;48.364;16.022;2023-08-06T07:01:10;16.60;99.90
7814;DHT22;3952;48.364;16.022;2023-08-06T07:03:38;16.60;99.90
7814;DHT22;3952;48.364;16.022;2023-08-06T07:06:06;16.60;99.90
7814;DHT22;3952;48.364;16.022;2023-08-06T07:08:34;16.70;99.90
7814;DHT22;3952;48.364;16.022;2023-08-06T07:11:02;16.70;99.90
7814;DHT22;3952;48.364;16.022;2023-08-06T07:13:29;16.70;99.90
7814;DHT22;3952;48.364;16.022;2023-08-06T07:15:56;16.80;99.90
7814;DHT22;3952;48.364;16.022;2023-08-06T07:18:24;16.80;99.90
7814;DHT22;3952;48.364;16.022;2023-08-06T07:20:54;16.80;99.90
7814;DHT22;3952;48.364;16.022;2023-08-06T07:23:23;16.90;99.90
7814;DHT22;3952;48.364;16.022;2023-08-06T07:25:50;16.90;99.90
7814;DHT22;3952;48.364;16.022;2023-08-06T07:28:18;16.90;99.90
7814;DHT22;3952;48.364;16.022;2023-08-06T07:30:45;17.00;99.90
7814;DHT22;3952;48.364;16.022;2023-08-06T07:33:12;16.90;99.90
7814;DHT22;3952;48.364;16.022;2023-08-06T07:35:39;17.00;99.90
7814;DHT22;3952;48.364;16.022;2023-08-06T07:38:08;17.00;99.90
7814;DHT22;3952;48.364;16.022;2023-08-06T07:40:36;17.00;99.90
7814;DHT22;3952;48.364;16.022;2023-08-06T07:43:03;17.00;99.90
7814;DHT22;3952;48.364;16.022;2023-08-06T07:45:33;17.00;99.90
7814;DHT22;3952;48.364;16.022;2023-08-06T07:48:01;17.10;99.90
7814;DHT22;3952;48.364;16.022;2023-08-06T07:50:28;17.00;99.90
7814;DHT22;3952;48.364;16.022;2023-08-06T07:52:56;17.00;99.90
7814;DHT22;3952;48.364;16.022;2023-08-06T07:55:25;17.00;99.90
7814;DHT22;3952;48.364;16.022;2023-08-06T07:57:53;17.00;99.90
7814;DHT22;3952;48.364;16.022;2023-08-06T08:00:20;17.00;99.90
7814;DHT22;3952;48.364;16.022;2023-08-06T08:02:47;17.00;99.90
7814;DHT22;3952;48.364;16.022;2023-08-06T08:05:15;17.10;99.90
7814;DHT22;3952;48.364;16.022;2023-08-06T08:07:42;17.10;99.90
7814;DHT22;3952;48.364;16.022;2023-08-06T08:10:10;17.10;99.90
7814;DHT22;3952;48.364;16.022;2023-08-06T08:12:38;17.10;99.90
7814;DHT22;3952;48.364;16.022;2023-08-06T08:15:06;17.20;99.90
7814;DHT22;3952;48.364;16.022;2023-08-06T08:17:34;17.10;99.90
7814;DHT22;3952;48.364;16.022;2023-08-06T08:20:01;17.20;99.90
7814;DHT22;3952;48.364;16.022;2023-08-06T08:22:28;17.30;99.90
7814;DHT22;3952;48.364;16.022;2023-08-06T08:24:56;17.30;99.90
7814;DHT22;3952;48.364;16.022;2023-08-06T08:27:23;17.40;99.90
7814;DHT22;3952;48.364;16.022;2023-08-06T08:29:51;17.50;99.90
7814;DHT22;3952;48.364;16.022;2023-08-06T08:32:19;17.50;99.90
7814;DHT22;3952;48.364;16.022;2023-08-06T08:34:46;17.60;99.90
7814;DHT22;3952;48.364;16.022;2023-08-06T08:37:13;17.60;99.90
7814;DHT22;3952;48.364;16.022;2023-08-06T08:39:40;17.70;99.90
7814;DHT22;3952;48.364;16.022;2023-08-06T08:42:09;17.60;99.90
7814;DHT22;3952;48.364;16.022;2023-08-06T08:44:37;17.60;99.90
7814;DHT22;3952;48.364;16.022;2023-08-06T08:47:07;17.60;99.90
7814;DHT22;3952;48.364;16.022;2023-08-06T08:49:36;17.60;99.90
7814;DHT22;3952;48.364;16.022;2023-08-06T08:52:04;17.60;99.90
7814;DHT22;3952;48.364;16.022;2023-08-06T08:54:34;17.60;99.90
7814;DHT22;3952;48.364;16.022;2023-08-06T08:57:02;17.60;99.90
7814;DHT22;3952;48.364;16.022;2023-08-06T08:59:29;17.60;99.90
7814;DHT22;3952;48.364;16.022;2023-08-06T09:01:57;17.60;99.90
7814;DHT22;3952;48.364;16.022;2023-08-06T09:04:27;17.60;99.90
7814;DHT22;3952;48.364;16.022;2023-08-06T09:06:58;17.60;99.90
7814;DHT22;3952;48.364;16.022;2023-08-06T09:09:30;17.50;99.90
7814;DHT22;3952;48.364;16.022;2023-08-06T09:12:00;17.50;99.90
7814;DHT22;3952;48.364;16.022;2023-08-06T09:14:28;17.50;99.90
7814;DHT22;3952;48.364;16.022;2023-08-06T09:16:56;17.50;99.90
7814;DHT22;3952;48.364;16.022;2023-08-06T09:19:23;17.50;99.90
7814;DHT22;3952;48.364;16.022;2023-08-06T09:21:54;17.50;99.90
7814;DHT22;3952;48.364;16.022;2023-08-06T09:24:22;17.40;99.90
7814;DHT22;3952;48.364;16.022;2023-08-06T09:26:49;17.40;99.90
7814;DHT22;3952;48.364;16.022;2023-08-06T09:29:16;17.40;99.90
7814;DHT22;3952;48.364;16.022;2023-08-06T09:31:44;17.40;99.90
7814;DHT22;3952;48.364;16.022;2023-08-06T09:34:12;17.40;99.90
7814;DHT22;3952;48.364;16.022;2023-08-06T09:36:42;17.40;99.90
7814;DHT22;3952;48.364;16.022;2023-08-06T09:39:18;17.40;99.90
7814;DHT22;3952;48.364;16.022;2023-08-06T09:41:46;17.40;99.90
7814;DHT22;3952;48.364;16.022;2023-08-06T09:44:18;17.40;99.90
7814;DHT22;3952;48.364;16.022;2023-08-06T09:46:49;17.40;99.90
7814;DHT22;3952;48.364;16.022;2023-08-06T09:49:17;17.40;99.90
7814;DHT22;3952;48.364;16.022;2023-08-06T09:51:45;17.40;99.90
7814;DHT22;3952;48.364;16.022;2023-08-06T09:54:12;17.40;99.90
7814;DHT22;3952;48.364;16.022;2023-08-06T09:56:42;17.40;99.90
7814;DHT22;3952;48.364;16.022;2023-08-06T09:59:10;17.40;99.90
7814;DHT22;3952;48.364;16.022;2023-08-06T10:01:38;17.50;99.90
7814;DHT22;3952;48.364;16.022;2023-08-06T10:04:06;17.40;99.90
7814;DHT22;3952;48.364;16.022;2023-08-06T10:06:35;17.50;99.90
7814;DHT22;3952;48.364;16.022;2023-08-06T10:09:03;17.50;99.90
7814;DHT22;3952;48.364;16.022;2023-08-06T10:11:30;17.50;99.90
7814;DHT22;3952;48.364;16.022;2023-08-06T10:14:04;17.50;99.90
7814;DHT22;3952;48.364;16.022;2023-08-06T10:16:33;17.50;99.90
7814;DHT22;3952;48.364;16.022;2023-08-06T10:19:02;17.50;99.90
7814;DHT22;3952;48.364;16.022;2023-08-06T10:21:31;17.60;99.90
7814;DHT22;3952;48.364;16.022;2023-08-06T10:23:58;17.60;99.90
7814;DHT22;3952;48.364;16.022;2023-08-06T10:26:27;17.60;99.90
7814;DHT22;3952;48.364;16.022;2023-08-06T10:28:56;17.60;99.90
7814;DHT22;3952;48.364;16.022;2023-08-06T10:31:55;17.70;99.90
7814;DHT22;3952;48.364;16.022;2023-08-06T10:34:22;17.70;99.90
7814;DHT22;3952;48.364;16.022;2023-08-06T10:36:49;17.80;99.90
7814;DHT22;3952;48.364;16.022;2023-08-06T10:39:16;17.80;99.90
7814;DHT22;3952;48.364;16.022;2023-08-06T10:41:43;17.90;99.90
7814;DHT22;3952;48.364;16.022;2023-08-06T10:44:11;17.90;99.90
7814;DHT22;3952;48.364;16.022;2023-08-06T10:46:38;18.00;99.90
7814;DHT22;3952;48.364;16.022;2023-08-06T10:49:07;18.00;99.90
7814;DHT22;3952;48.364;16.022;2023-08-06T10:51:34;18.10;99.90
7814;DHT22;3952;48.364;16.022;2023-08-06T10:54:02;18.10;99.90
7814;DHT22;3952;48.364;16.022;2023-08-06T10:56:30;18.20;99.90
7814;DHT22;3952;48.364;16.022;2023-08-06T10:58:57;18.20;99.90
7814;DHT22;3952;48.364;16.022;2023-08-06T11:01:24;18.20;99.90
7814;DHT22;3952;48.364;16.022;2023-08-06T11:03:55;18.30;99.90
7814;DHT22;3952;48.364;16.022;2023-08-06T11:06:24;18.30;99.90
7814;DHT22;3952;48.364;16.022;2023-08-06T11:08:54;18.40;99.90
7814;DHT22;3952;48.364;16.022;2023-08-06T11:11:23;18.50;99.90
7814;DHT22;3952;48.364;16.022;2023-08-06T11:13:51;18.60;99.90
7814;DHT22;3952;48.364;16.022;2023-08-06T11:16:19;18.60;99.90
7814;DHT22;3952;48.364;16.022;2023-08-06T11:18:46;18.70;99.90
7814;DHT22;3952;48.364;16.022;2023-08-06T11:21:13;18.80;99.90
7814;DHT22;3952;48.364;16.022;2023-08-06T11:23:42;18.90;99.90
7814;DHT22;3952;48.364;16.022;2023-08-06T11:26:09;18.90;99.90
7814;DHT22;3952;48.364;16.022;2023-08-06T11:28:36;18.90;99.90
7814;DHT22;3952;48.364;16.022;2023-08-06T11:31:04;18.80;99.90
7814;DHT22;3952;48.364;16.022;2023-08-06T11:33:31;18.80;99.90
7814;DHT22;3952;48.364;16.022;2023-08-06T11:35:59;18.70;99.90
7814;DHT22;3952;48.364;16.022;2023-08-06T11:38:28;18.60;99.90
7814;DHT22;3952;48.364;16.022;2023-08-06T11:40:57;18.50;99.90
7814;DHT22;3952;48.364;16.022;2023-08-06T11:43:24;18.50;99.90
7814;DHT22;3952;48.364;16.022;2023-08-06T11:45:51;18.40;99.90
7814;DHT22;3952;48.364;16.022;2023-08-06T11:48:20;18.30;99.90
7814;DHT22;3952;48.364;16.022;2023-08-06T11:50:47;18.20;99.90
7814;DHT22;3952;48.364;16.022;2023-08-06T11:53:15;18.20;99.90
7814;DHT22;3952;48.364;16.022;2023-08-06T11:55:42;18.20;99.90
7814;DHT22;3952;48.364;16.022;2023-08-06T11:58:11;18.20;99.90
7814;DHT22;3952;48.364;16.022;2023-08-06T12:00:39;18.20;99.90
7814;DHT22;3952;48.364;16.022;2023-08-06T12:03:06;18.20;99.90
7814;DHT22;3952;48.364;16.022;2023-08-06T12:05:33;18.20;99.90
7814;DHT22;3952;48.364;16.022;2023-08-06T12:08:02;18.10;99.90
7814;DHT22;3952;48.364;16.022;2023-08-06T12:10:30;18.10;99.90
7814;DHT22;3952;48.364;16.022;2023-08-06T12:12:58;18.10;99.90
7814;DHT22;3952;48.364;16.022;2023-08-06T12:15:26;18.10;99.90
7814;DHT22;3952;48.364;16.022;2023-08-06T12:17:53;18.10;99.90
7814;DHT22;3952;48.364;16.022;2023-08-06T12:20:21;18.10;99.90
7814;DHT22;3952;48.364;16.022;2023-08-06T12:22:48;18.10;99.90
7814;DHT22;3952;48.364;16.022;2023-08-06T12:25:15;18.10;99.90
7814;DHT22;3952;48.364;16.022;2023-08-06T12:27:43;18.10;99.90
7814;DHT22;3952;48.364;16.022;2023-08-06T12:30:12;18.20;99.90
7814;DHT22;3952;48.364;16.022;2023-08-06T12:32:41;18.20;99.90
7814;DHT22;3952;48.364;16.022;2023-08-06T12:35:08;18.30;99.90
7814;DHT22;3952;48.364;16.022;2023-08-06T12:37:36;18.30;99.90
7814;DHT22;3952;48.364;16.022;2023-08-06T12:40:05;18.40;99.90
7814;DHT22;3952;48.364;16.022;2023-08-06T12:42:32;18.40;99.90
7814;DHT22;3952;48.364;16.022;2023-08-06T12:44:59;18.40;99.90
7814;DHT22;3952;48.364;16.022;2023-08-06T12:47:26;18.50;99.90
7814;DHT22;3952;48.364;16.022;2023-08-06T12:49:55;18.50;99.90
7814;DHT22;3952;48.364;16.022;2023-08-06T12:52:22;18.50;99.90
7814;DHT22;3952;48.364;16.022;2023-08-06T12:54:49;18.60;99.90
7814;DHT22;3952;48.364;16.022;2023-08-06T12:57:16;18.60;99.90
7814;DHT22;3952;48.364;16.022;2023-08-06T12:59:43;18.60;99.90
7814;DHT22;3952;48.364;16.022;2023-08-06T13:02:11;18.60;99.90
7814;DHT22;3952;48.364;16.022;2023-08-06T13:04:38;18.60;99.90
7814;DHT22;3952;48.364;16.022;2023-08-06T13:07:07;18.70;99.90
7814;DHT22;3952;48.364;16.022;2023-08-06T13:09:34;18.80;99.90
7814;DHT22;3952;48.364;16.022;2023-08-06T13:12:01;18.80;99.90
7814;DHT22;3952;48.364;16.022;2023-08-06T13:14:31;18.90;99.90
7814;DHT22;3952;48.364;16.022;2023-08-06T13:17:00;18.90;99.90
7814;DHT22;3952;48.364;16.022;2023-08-06T13:19:28;18.90;99.90
7814;DHT22;3952;48.364;16.022;2023-08-06T13:22:00;19.00;99.90
7814;DHT22;3952;48.364;16.022;2023-08-06T13:24:30;19.10;99.90
7814;DHT22;3952;48.364;16.022;2023-08-06T13:26:58;19.10;99.90
7814;DHT22;3952;48.364;16.022;2023-08-06T13:29:25;19.20;99.90
7814;DHT22;3952;48.364;16.022;2023-08-06T13:31:53;19.20;99.90
7814;DHT22;3952;48.364;16.022;2023-08-06T13:34:20;19.30;99.90
7814;DHT22;3952;48.364;16.022;2023-08-06T13:36:48;19.30;99.90
7814;DHT22;3952;48.364;16.022;2023-08-06T13:39:15;19.40;99.90
7814;DHT22;3952;48.364;16.022;2023-08-06T13:41:44;19.40;99.90
7814;DHT22;3952;48.364;16.022;2023-08-06T13:44:11;19.50;99.90
7814;DHT22;3952;48.364;16.022;2023-08-06T13:46:41;19.50;99.90
7814;DHT22;3952;48.364;16.022;2023-08-06T13:49:08;19.60;99.90
7814;DHT22;3952;48.364;16.022;2023-08-06T13:51:35;19.60;99.90
7814;DHT22;3952;48.364;16.022;2023-08-06T13:54:04;19.60;99.90
7814;DHT22;3952;48.364;16.022;2023-08-06T13:56:32;19.70;99.90
7814;DHT22;3952;48.364;16.022;2023-08-06T13:59:01;19.70;99.90
7814;DHT22;3952;48.364;16.022;2023-08-06T14:01:28;19.80;99.90
7814;DHT22;3952;48.364;16.022;2023-08-06T14:03:55;19.80;99.90
7814;DHT22;3952;48.364;16.022;2023-08-06T14:06:23;19.90;99.90
7814;DHT22;3952;48.364;16.022;2023-08-06T14:08:50;19.90;99.90
7814;DHT22;3952;48.364;16.022;2023-08-06T14:11:17;19.90;99.90
7814;DHT22;3952;48.364;16.022;2023-08-06T14:13:44;19.90;99.90
7814;DHT22;3952;48.364;16.022;2023-08-06T14:16:13;19.90;99.90
7814;DHT22;3952;48.364;16.022;2023-08-06T14:19:11;19.80;99.90
7814;DHT22;3952;48.364;16.022;2023-08-06T14:21:39;19.60;99.90
7814;DHT22;3952;48.364;16.022;2023-08-06T14:24:06;19.20;99.90
7814;DHT22;3952;48.364;16.022;2023-08-06T14:26:33;18.80;99.90
7814;DHT22;3952;48.364;16.022;2023-08-06T14:29:01;18.60;99.90
7814;DHT22;3952;48.364;16.022;2023-08-06T14:31:29;18.50;99.90
7814;DHT22;3952;48.364;16.022;2023-08-06T14:33:57;18.40;99.90
7814;DHT22;3952;48.364;16.022;2023-08-06T14:36:24;18.30;99.90
7814;DHT22;3952;48.364;16.022;2023-08-06T14:38:51;18.20;99.90
7814;DHT22;3952;48.364;16.022;2023-08-06T14:41:18;18.10;99.90
7814;DHT22;3952;48.364;16.022;2023-08-06T14:43:46;17.90;99.90
7814;DHT22;3952;48.364;16.022;2023-08-06T14:46:13;17.80;99.90
7814;DHT22;3952;48.364;16.022;2023-08-06T14:48:41;17.70;99.90
7814;DHT22;3952;48.364;16.022;2023-08-06T14:51:09;17.70;99.90
7814;DHT22;3952;48.364;16.022;2023-08-06T14:53:36;17.80;99.90
7814;DHT22;3952;48.364;16.022;2023-08-06T14:56:03;17.80;99.90
7814;DHT22;3952;48.364;16.022;2023-08-06T14:58:31;17.80;99.90
7814;DHT22;3952;48.364;16.022;2023-08-06T15:00:58;17.80;99.90
7814;DHT22;3952;48.364;16.022;2023-08-06T15:03:25;17.80;99.90
7814;DHT22;3952;48.364;16.022;2023-08-06T15:05:55;17.80;99.90
7814;DHT22;3952;48.364;16.022;2023-08-06T15:08:22;17.80;99.90
7814;DHT22;3952;48.364;16.022;2023-08-06T15:10:52;17.90;99.90
7814;DHT22;3952;48.364;16.022;2023-08-06T15:13:20;17.80;99.90
7814;DHT22;3952;48.364;16.022;2023-08-06T15:15:48;17.80;99.90
7814;DHT22;3952;48.364;16.022;2023-08-06T15:18:15;17.80;99.90
7814;DHT22;3952;48.364;16.022;2023-08-06T15:20:42;17.80;99.90
7814;DHT22;3952;48.364;16.022;2023-08-06T15:23:11;17.80;99.90
7814;DHT22;3952;48.364;16.022;2023-08-06T15:25:38;17.80;99.90
7814;DHT22;3952;48.364;16.022;2023-08-06T15:28:05;17.80;99.90
7814;DHT22;3952;48.364;16.022;2023-08-06T15:30:32;17.90;99.90
7814;DHT22;3952;48.364;16.022;2023-08-06T15:33:00;17.90;99.90
7814;DHT22;3952;48.364;16.022;2023-08-06T15:35:27;17.90;99.90
7814;DHT22;3952;48.364;16.022;2023-08-06T15:37:54;17.90;99.90
7814;DHT22;3952;48.364;16.022;2023-08-06T15:40:23;17.90;99.90
7814;DHT22;3952;48.364;16.022;2023-08-06T15:42:51;18.00;99.90
7814;DHT22;3952;48.364;16.022;2023-08-06T15:45:18;18.00;99.90
7814;DHT22;3952;48.364;16.022;2023-08-06T15:47:45;18.00;99.90
7814;DHT22;3952;48.364;16.022;2023-08-06T15:50:12;18.00;99.90